Time;durP1;ratioP1;P1;durP2;ratioP2;P2;SDS_P1;SDS_P2;PMS_P1;PMS_P2;Temp;Humidity;BMP_temperature;BMP_pressure;BME280_temperature;BME280_humidity;BME280_pressure;Samples;Min_cycle;Max_cycle;Signal;HPM_P1;HPM_P2
2022/10/10 00:00:43;;;;;;;5.33;4.20;;;;;;;;;;5050097;28;20215;-76
2022/10/10 00:03:10;;;;;;;4.23;3.90;;;;;;;;;;5050398;28;20684;-75
2022/10/10 00:05:40;;;;;;;4.53;4.13;;;;;;;;;;5050196;28;20324;-76
2022/10/10 00:08:07;;;;;;;3.60;3.30;;;;;;;;;;5050103;28;20208;-76
2022/10/10 00:10:34;;;;;;;8.37;3.93;;;;;;;;;;5049997;28;20260;-77
2022/10/10 00:13:00;;;;;;;3.70;3.43;;;;;;;;;;5050278;28;20209;-76
2022/10/10 00:15:27;;;;;;;3.53;3.23;;;;;;;;;;5049869;28;20201;-76
2022/10/10 00:17:54;;;;;;;3.90;3.60;;;;;;;;;;5050309;28;20201;-76
2022/10/10 00:20:21;;;;;;;4.30;3.90;;;;;;;;;;5049984;28;20193;-76
2022/10/10 00:22:49;;;;;;;6.23;4.13;;;;;;;;;;5049770;28;20647;-77
2022/10/10 00:25:16;;;;;;;4.20;3.80;;;;;;;;;;5050124;28;20208;-76
2022/10/10 00:27:43;;;;;;;4.00;3.70;;;;;;;;;;5050376;28;20212;-76
2022/10/10 00:30:10;;;;;;;3.83;3.53;;;;;;;;;;5050312;28;20209;-76
2022/10/10 00:32:37;;;;;;;3.73;3.43;;;;;;;;;;5049870;28;20198;-77
2022/10/10 00:35:05;;;;;;;3.47;3.17;;;;;;;;;;5049583;28;20229;-77
2022/10/10 00:37:31;;;;;;;6.37;3.47;;;;;;;;;;5049982;28;20718;-76
2022/10/10 00:40:00;;;;;;;4.93;3.43;;;;;;;;;;5049745;28;20758;-76
2022/10/10 00:42:27;;;;;;;4.10;3.67;;;;;;;;;;5050180;28;20205;-76
2022/10/10 00:45:35;;;;;;;3.93;3.63;;;;;;;;;;5049692;28;20648;-76
2022/10/10 00:48:04;;;;;;;4.03;3.70;;;;;;;;;;5025694;28;20216;-76
2022/10/10 00:50:34;;;;;;;3.90;3.50;;;;;;;;;;5049972;28;20280;-77
2022/10/10 00:53:00;;;;;;;4.07;3.60;;;;;;;;;;5052164;28;20225;-77
2022/10/10 00:55:29;;;;;;;4.87;3.60;;;;;;;;;;5053652;28;20221;-77
2022/10/10 00:57:55;;;;;;;3.60;3.10;;;;;;;;;;5053944;28;20581;-77
2022/10/10 01:00:22;;;;;;;5.07;3.80;;;;;;;;;;5047868;28;20203;-78
2022/10/10 01:02:49;;;;;;;3.97;3.47;;;;;;;;;;5044956;28;20202;-76
2022/10/10 01:05:16;;;;;;;5.20;3.57;;;;;;;;;;5053392;28;20201;-76
2022/10/10 01:07:43;;;;;;;3.83;3.53;;;;;;;;;;5053474;28;20206;-77
2022/10/10 01:10:13;;;;;;;4.13;3.73;;;;;;;;;;5053301;28;20209;-76
2022/10/10 01:12:53;;;;;;;4.00;3.70;;;;;;;;;;5053127;28;20695;-77
2022/10/10 01:15:25;;;;;;;4.37;3.97;;;;;;;;;;5052972;28;20221;-76
2022/10/10 01:17:57;;;;;;;4.60;3.27;;;;;;;;;;5053322;28;20206;-77
2022/10/10 01:20:37;;;;;;;7.30;3.70;;;;;;;;;;5052882;28;20735;-77
2022/10/10 01:24:00;;;;;;;3.90;3.53;;;;;;;;;;5052891;28;20209;-77
2022/10/10 01:26:56;;;;;;;4.40;4.00;;;;;;;;;;5042346;28;20264;-77
2022/10/10 01:29:29;;;;;;;3.93;3.40;;;;;;;;;;5038581;28;20742;-76
2022/10/10 01:31:57;;;;;;;3.83;3.53;;;;;;;;;;5053263;28;20202;-76
2022/10/10 01:34:30;;;;;;;4.07;3.77;;;;;;;;;;5052835;28;20222;-77
2022/10/10 01:36:59;;;;;;;5.07;4.20;;;;;;;;;;5052923;28;20293;-77
2022/10/10 01:39:30;;;;;;;3.80;3.50;;;;;;;;;;5052229;28;20206;-77
2022/10/10 01:42:02;;;;;;;5.03;4.10;;;;;;;;;;5052461;28;20206;-77
2022/10/10 01:44:30;;;;;;;4.20;3.60;;;;;;;;;;5052474;28;20620;-76
2022/10/10 01:46:57;;;;;;;4.43;4.07;;;;;;;;;;5052827;28;20213;-76
2022/10/10 01:49:28;;;;;;;4.13;3.83;;;;;;;;;;5052684;28;20205;-76
2022/10/10 01:52:05;;;;;;;6.73;4.17;;;;;;;;;;5052867;28;20198;-76
2022/10/10 01:54:42;;;;;;;5.63;3.60;;;;;;;;;;5052213;28;20232;-76
2022/10/10 01:57:16;;;;;;;4.40;4.00;;;;;;;;;;5039435;28;20210;-76
2022/10/10 01:59:53;;;;;;;6.00;4.23;;;;;;;;;;5052445;28;20197;-77
2022/10/10 02:02:25;;;;;;;3.83;3.53;;;;;;;;;;5051930;28;20197;-76
2022/10/10 02:04:55;;;;;;;4.90;4.07;;;;;;;;;;5051853;28;20202;-76
2022/10/10 02:07:25;;;;;;;4.50;4.10;;;;;;;;;;5052703;28;20190;-76
2022/10/10 02:09:53;;;;;;;6.07;3.77;;;;;;;;;;5051821;28;20566;-76
2022/10/10 02:12:21;;;;;;;3.90;3.60;;;;;;;;;;5052356;28;20669;-76
2022/10/10 02:14:52;;;;;;;4.60;4.17;;;;;;;;;;5052500;28;20236;-76
2022/10/10 02:17:18;;;;;;;4.13;3.73;;;;;;;;;;5051992;28;20588;-76
2022/10/10 02:19:48;;;;;;;5.40;4.23;;;;;;;;;;5052260;28;20205;-76
2022/10/10 02:22:15;;;;;;;5.47;4.37;;;;;;;;;;5051737;28;20591;-76
2022/10/10 02:24:42;;;;;;;5.73;5.13;;;;;;;;;;5052113;28;20648;-76
2022/10/10 02:27:12;;;;;;;5.27;4.07;;;;;;;;;;5051867;28;20213;-76
2022/10/10 02:29:42;;;;;;;5.17;3.67;;;;;;;;;;5050312;28;20210;-76
2022/10/10 02:32:12;;;;;;;4.43;4.03;;;;;;;;;;5050847;28;20263;-76
2022/10/10 02:34:43;;;;;;;5.90;4.20;;;;;;;;;;5051141;28;20287;-76
2022/10/10 02:37:12;;;;;;;4.97;4.53;;;;;;;;;;5051872;28;20695;-76
2022/10/10 02:39:47;;;;;;;5.10;4.53;;;;;;;;;;5051256;28;20333;-76
2022/10/10 02:42:16;;;;;;;3.97;3.67;;;;;;;;;;5051755;28;20208;-76
2022/10/10 02:44:43;;;;;;;4.17;3.80;;;;;;;;;;5037736;28;20209;-76
2022/10/10 02:47:11;;;;;;;3.90;3.60;;;;;;;;;;5051436;28;20209;-76
2022/10/10 02:49:39;;;;;;;4.43;4.03;;;;;;;;;;5051411;28;20212;-76
2022/10/10 02:52:06;;;;;;;3.97;3.67;;;;;;;;;;5051434;28;20234;-76
2022/10/10 02:54:33;;;;;;;4.13;3.13;;;;;;;;;;5051579;28;20226;-76
2022/10/10 02:57:00;;;;;;;4.90;4.40;;;;;;;;;;5051147;28;20194;-76
2022/10/10 02:59:26;;;;;;;6.00;4.10;;;;;;;;;;5050907;28;20206;-75
2022/10/10 03:01:53;;;;;;;5.30;4.13;;;;;;;;;;5051259;28;20198;-76
2022/10/10 03:04:21;;;;;;;4.37;3.97;;;;;;;;;;5050802;28;20206;-76
2022/10/10 03:06:48;;;;;;;5.40;4.03;;;;;;;;;;5050559;28;20684;-76
2022/10/10 03:09:15;;;;;;;4.07;3.77;;;;;;;;;;5051215;28;20213;-76
2022/10/10 03:11:42;;;;;;;4.53;4.20;;;;;;;;;;5050574;28;20206;-76
2022/10/10 03:14:08;;;;;;;4.30;3.93;;;;;;;;;;5049756;28;20229;-76
2022/10/10 03:16:35;;;;;;;3.80;3.40;;;;;;;;;;5049688;28;20201;-76
2022/10/10 03:19:03;;;;;;;5.90;4.00;;;;;;;;;;5050560;28;20209;-77
2022/10/10 03:21:31;;;;;;;4.27;3.87;;;;;;;;;;5050642;28;20198;-76
2022/10/10 03:23:57;;;;;;;4.90;4.50;;;;;;;;;;5050579;28;20580;-76
2022/10/10 03:26:24;;;;;;;5.67;3.93;;;;;;;;;;5050643;28;20731;-76
2022/10/10 03:28:51;;;;;;;5.23;3.77;;;;;;;;;;5050744;28;20245;-76
2022/10/10 03:31:18;;;;;;;5.10;4.10;;;;;;;;;;5050589;28;20198;-76
2022/10/10 03:33:44;;;;;;;5.77;4.33;;;;;;;;;;5037118;28;20206;-76
2022/10/10 03:36:11;;;;;;;4.23;3.83;;;;;;;;;;5050895;28;20233;-76
2022/10/10 03:38:40;;;;;;;5.43;4.37;;;;;;;;;;5050028;28;20687;-76
2022/10/10 03:41:07;;;;;;;4.13;3.63;;;;;;;;;;5051063;28;20255;-76
2022/10/10 03:43:34;;;;;;;3.97;3.57;;;;;;;;;;5050581;28;20205;-76
2022/10/10 03:46:01;;;;;;;4.40;4.00;;;;;;;;;;5050594;28;20209;-76
2022/10/10 03:48:27;;;;;;;5.30;4.13;;;;;;;;;;5050819;28;20276;-77
2022/10/10 03:50:54;;;;;;;4.40;3.80;;;;;;;;;;5047191;28;20577;-79
2022/10/10 03:53:21;;;;;;;4.87;3.77;;;;;;;;;;5050042;28;20225;-78
2022/10/10 03:55:49;;;;;;;7.07;5.80;;;;;;;;;;5049807;28;20236;-76
2022/10/10 03:58:16;;;;;;;11.23;6.27;;;;;;;;;;5050216;28;20684;-76
2022/10/10 04:00:42;;;;;;;6.73;5.40;;;;;;;;;;5048816;28;20699;-76
2022/10/10 04:03:09;;;;;;;6.73;6.03;;;;;;;;;;5050027;28;20201;-76
2022/10/10 04:05:37;;;;;;;22.50;14.77;;;;;;;;;;5047774;28;20201;-76
2022/10/10 04:08:05;;;;;;;50.37;26.47;;;;;;;;;;5049232;28;20197;-77
2022/10/10 04:10:32;;;;;;;11.70;7.03;;;;;;;;;;5048720;28;20312;-76
2022/10/10 04:13:00;;;;;;;7.90;4.50;;;;;;;;;;5049735;28;20197;-76
2022/10/10 04:15:27;;;;;;;14.50;7.80;;;;;;;;;;5049874;28;20394;-77
2022/10/10 04:17:53;;;;;;;7.50;5.40;;;;;;;;;;5050223;28;20668;-76
2022/10/10 04:20:20;;;;;;;5.50;4.53;;;;;;;;;;5049859;28;20573;-75
2022/10/10 04:22:47;;;;;;;6.80;4.13;;;;;;;;;;5050237;28;20572;-76
2022/10/10 04:25:14;;;;;;;7.90;4.97;;;;;;;;;;5050228;28;20236;-76
2022/10/10 04:27:42;;;;;;;7.67;4.80;;;;;;;;;;5054336;28;20205;-76
2022/10/10 04:30:11;;;;;;;4.50;4.10;;;;;;;;;;5053941;28;20293;-76
2022/10/10 04:32:38;;;;;;;11.43;5.33;;;;;;;;;;5054364;28;20239;-76
2022/10/10 04:35:05;;;;;;;5.17;4.67;;;;;;;;;;5053795;28;20236;-75
2022/10/10 04:37:32;;;;;;;5.30;4.80;;;;;;;;;;5054040;28;20205;-76
2022/10/10 04:39:59;;;;;;;11.03;5.03;;;;;;;;;;5053989;28;20205;-76
2022/10/10 04:42:26;;;;;;;7.57;4.17;;;;;;;;;;5053506;28;20205;-76
2022/10/10 04:44:53;;;;;;;4.00;3.60;;;;;;;;;;5052631;28;20206;-76
2022/10/10 04:47:21;;;;;;;4.97;4.47;;;;;;;;;;5053024;28;20618;-75
2022/10/10 04:49:47;;;;;;;5.87;4.70;;;;;;;;;;5053205;28;20346;-75
2022/10/10 04:52:14;;;;;;;9.80;4.60;;;;;;;;;;5053499;28;20266;-75
2022/10/10 04:54:41;;;;;;;7.00;4.77;;;;;;;;;;5053264;28;20224;-75
2022/10/10 04:57:08;;;;;;;4.23;3.93;;;;;;;;;;5053972;28;20211;-75
2022/10/10 04:59:35;;;;;;;4.97;3.87;;;;;;;;;;5053626;28;20202;-75
2022/10/10 05:02:02;;;;;;;4.47;4.07;;;;;;;;;;5053291;28;20598;-75
2022/10/10 05:04:30;;;;;;;4.77;4.37;;;;;;;;;;5053532;28;20263;-75
2022/10/10 05:06:57;;;;;;;5.57;4.60;;;;;;;;;;5053437;28;20267;-76
2022/10/10 05:09:23;;;;;;;15.87;7.57;;;;;;;;;;5053575;28;20252;-76
2022/10/10 05:11:50;;;;;;;24.60;11.73;;;;;;;;;;5053365;28;20756;-76
2022/10/10 05:14:17;;;;;;;12.07;6.63;;;;;;;;;;5053362;28;20200;-76
2022/10/10 05:16:44;;;;;;;7.90;5.37;;;;;;;;;;5053192;28;20233;-76
2022/10/10 05:19:10;;;;;;;7.20;5.40;;;;;;;;;;5052994;28;20681;-76
2022/10/10 05:21:38;;;;;;;8.43;5.33;;;;;;;;;;5053299;28;20212;-76
2022/10/10 05:24:05;;;;;;;5.20;4.30;;;;;;;;;;5052994;28;20201;-76
2022/10/10 05:26:32;;;;;;;4.60;4.13;;;;;;;;;;5052914;28;20209;-76
2022/10/10 05:29:00;;;;;;;4.27;3.87;;;;;;;;;;5052957;28;20217;-76
2022/10/10 05:31:27;;;;;;;8.80;4.80;;;;;;;;;;5052983;28;20597;-76
2022/10/10 05:33:54;;;;;;;10.00;5.53;;;;;;;;;;5053185;28;20206;-76
2022/10/10 05:36:21;;;;;;;5.63;5.13;;;;;;;;;;5053044;28;20275;-76
2022/10/10 05:38:49;;;;;;;5.77;4.57;;;;;;;;;;5052465;28;20209;-76
2022/10/10 05:41:16;;;;;;;4.33;3.93;;;;;;;;;;5052953;28;20283;-76
2022/10/10 05:43:42;;;;;;;7.10;6.07;;;;;;;;;;5052626;28;20688;-76
2022/10/10 05:46:12;;;;;;;6.53;5.07;;;;;;;;;;5052132;28;20209;-76
2022/10/10 05:48:38;;;;;;;12.67;9.90;;;;;;;;;;5053235;28;20217;-76
2022/10/10 05:51:06;;;;;;;6.80;6.17;;;;;;;;;;5052520;28;20202;-76
2022/10/10 05:53:33;;;;;;;5.57;5.00;;;;;;;;;;5052493;28;20711;-76
2022/10/10 05:56:02;;;;;;;7.13;5.10;;;;;;;;;;5052252;28;20232;-76
2022/10/10 05:58:29;;;;;;;10.70;4.90;;;;;;;;;;5052257;28;20202;-76
2022/10/10 06:01:03;;;;;;;5.23;4.73;;;;;;;;;;5052841;28;20270;-76
2022/10/10 06:03:30;;;;;;;6.47;4.70;;;;;;;;;;5052396;28;20762;-76
2022/10/10 06:05:56;;;;;;;6.40;4.83;;;;;;;;;;5052441;28;20561;-76
2022/10/10 06:08:24;;;;;;;7.73;4.97;;;;;;;;;;5052204;28;20209;-76
2022/10/10 06:10:51;;;;;;;6.03;4.17;;;;;;;;;;5051819;28;20707;-76
2022/10/10 06:13:20;;;;;;;15.40;5.10;;;;;;;;;;5052401;28;20205;-76
2022/10/10 06:15:50;;;;;;;6.07;4.47;;;;;;;;;;5052178;28;20263;-76
2022/10/10 06:18:17;;;;;;;6.00;4.60;;;;;;;;;;5052371;28;20198;-76
2022/10/10 06:20:43;;;;;;;4.77;4.20;;;;;;;;;;5051932;28;20335;-76
2022/10/10 06:23:11;;;;;;;6.03;5.07;;;;;;;;;;5052045;28;20206;-76
2022/10/10 06:25:37;;;;;;;6.00;4.67;;;;;;;;;;5051836;28;20702;-76
2022/10/10 06:28:04;;;;;;;5.47;4.60;;;;;;;;;;5052150;28;20207;-76
2022/10/10 06:30:33;;;;;;;5.50;4.97;;;;;;;;;;5051783;28;20264;-76
2022/10/10 06:33:00;;;;;;;6.27;5.13;;;;;;;;;;5052190;28;20203;-76
2022/10/10 06:35:27;;;;;;;6.53;5.40;;;;;;;;;;5051658;28;20222;-76
2022/10/10 06:37:54;;;;;;;5.87;5.27;;;;;;;;;;5051932;28;20233;-77
2022/10/10 06:40:20;;;;;;;5.77;5.23;;;;;;;;;;5052110;28;20222;-77
2022/10/10 06:42:47;;;;;;;7.10;5.13;;;;;;;;;;5051950;28;20204;-77
2022/10/10 06:45:14;;;;;;;6.47;5.80;;;;;;;;;;5051960;28;20230;-77
2022/10/10 06:47:42;;;;;;;6.50;5.90;;;;;;;;;;5051836;28;20222;-77
2022/10/10 06:50:12;;;;;;;6.30;5.53;;;;;;;;;;5051548;28;20198;-77
2022/10/10 06:52:40;;;;;;;7.23;5.47;;;;;;;;;;5051521;28;20238;-77
2022/10/10 06:55:08;;;;;;;5.30;4.80;;;;;;;;;;5051179;28;20245;-77
2022/10/10 06:57:34;;;;;;;5.80;5.17;;;;;;;;;;5052421;28;20205;-77
2022/10/10 07:00:01;;;;;;;10.17;5.37;;;;;;;;;;5051478;28;20200;-77
2022/10/10 07:02:28;;;;;;;6.93;5.67;;;;;;;;;;5051541;28;20196;-79
2022/10/10 07:04:56;;;;;;;9.47;5.17;;;;;;;;;;5051330;28;20205;-77
2022/10/10 07:07:23;;;;;;;5.23;4.73;;;;;;;;;;5051634;28;20196;-77
2022/10/10 07:09:49;;;;;;;6.50;5.90;;;;;;;;;;5051436;28;20210;-78
2022/10/10 07:12:16;;;;;;;5.93;5.43;;;;;;;;;;5051578;28;20212;-77
2022/10/10 07:14:43;;;;;;;7.50;5.57;;;;;;;;;;5051192;28;20258;-77
2022/10/10 07:17:10;;;;;;;5.73;5.23;;;;;;;;;;5051028;28;20704;-78
2022/10/10 07:19:37;;;;;;;6.30;5.70;;;;;;;;;;5050802;28;20691;-81
2022/10/10 07:22:05;;;;;;;7.47;5.77;;;;;;;;;;5051137;28;20287;-78
2022/10/10 07:24:32;;;;;;;6.60;6.00;;;;;;;;;;5051129;28;20623;-78
2022/10/10 07:26:58;;;;;;;6.60;5.97;;;;;;;;;;5050996;28;20212;-78
2022/10/10 07:29:27;;;;;;;6.33;5.73;;;;;;;;;;5051229;28;20209;-78
2022/10/10 07:31:53;;;;;;;8.43;6.40;;;;;;;;;;5051519;28;20267;-78
2022/10/10 07:34:20;;;;;;;7.73;6.47;;;;;;;;;;5050319;28;20209;-79
2022/10/10 07:36:49;;;;;;;8.13;6.40;;;;;;;;;;5051080;28;20237;-78
2022/10/10 07:39:20;;;;;;;9.27;6.93;;;;;;;;;;5050988;28;20206;-78
2022/10/10 07:41:47;;;;;;;7.43;6.70;;;;;;;;;;5051131;28;20210;-78
2022/10/10 07:44:14;;;;;;;10.13;6.87;;;;;;;;;;5050562;28;20212;-78
2022/10/10 07:46:40;;;;;;;8.30;7.43;;;;;;;;;;5050476;28;20206;-79
2022/10/10 07:49:07;;;;;;;10.50;6.13;;;;;;;;;;5051094;28;20586;-78
2022/10/10 07:51:34;;;;;;;10.30;7.30;;;;;;;;;;5050908;28;20209;-77
2022/10/10 07:54:01;;;;;;;7.33;6.10;;;;;;;;;;5050577;28;20230;-78
2022/10/10 07:56:29;;;;;;;8.00;6.67;;;;;;;;;;5050584;28;20708;-78
2022/10/10 07:58:56;;;;;;;9.27;6.63;;;;;;;;;;5050688;28;20814;-78
2022/10/10 08:01:22;;;;;;;7.87;7.10;;;;;;;;;;5049995;28;20202;-79
2022/10/10 08:03:49;;;;;;;7.67;6.87;;;;;;;;;;5050602;28;20208;-78
2022/10/10 08:06:17;;;;;;;11.30;6.33;;;;;;;;;;5050603;28;20654;-78
2022/10/10 08:08:45;;;;;;;8.30;6.73;;;;;;;;;;5050473;28;20205;-78
2022/10/10 08:11:11;;;;;;;6.60;5.90;;;;;;;;;;5050422;28;20201;-78
2022/10/10 08:13:41;;;;;;;9.37;6.93;;;;;;;;;;5050275;28;20264;-79
2022/10/10 08:16:08;;;;;;;9.80;7.00;;;;;;;;;;5050318;28;20725;-78
2022/10/10 08:18:35;;;;;;;9.77;6.73;;;;;;;;;;5050403;28;20758;-79
2022/10/10 08:21:03;;;;;;;9.27;6.73;;;;;;;;;;5050405;28;20256;-79
2022/10/10 08:23:29;;;;;;;7.90;6.37;;;;;;;;;;5050644;28;20201;-79
2022/10/10 08:25:58;;;;;;;11.10;7.27;;;;;;;;;;5050413;28;20216;-80
2022/10/10 08:28:25;;;;;;;8.83;7.23;;;;;;;;;;5050357;28;20236;-79
2022/10/10 08:30:54;;;;;;;7.87;7.17;;;;;;;;;;5050105;28;20205;-82
2022/10/10 08:33:20;;;;;;;7.97;5.97;;;;;;;;;;5050107;28;20270;-79
2022/10/10 08:35:47;;;;;;;7.27;6.57;;;;;;;;;;5050117;28;20770;-80
2022/10/10 08:38:14;;;;;;;7.13;5.83;;;;;;;;;;5050414;28;20224;-79
2022/10/10 08:40:45;;;;;;;7.47;6.57;;;;;;;;;;5050412;28;20205;-79
2022/10/10 08:43:20;;;;;;;7.57;6.77;;;;;;;;;;5050345;28;20206;-79
2022/10/10 08:45:47;;;;;;;6.97;6.37;;;;;;;;;;5049841;28;20262;-79
2022/10/10 08:48:16;;;;;;;6.97;6.27;;;;;;;;;;5050598;28;20205;-80
2022/10/10 08:50:45;;;;;;;6.87;6.10;;;;;;;;;;5050183;28;20596;-78
2022/10/10 08:53:14;;;;;;;6.67;5.67;;;;;;;;;;5050444;28;20640;-79
2022/10/10 08:55:42;;;;;;;7.60;6.80;;;;;;;;;;5049725;28;20692;-78
2022/10/10 08:58:15;;;;;;;8.40;7.60;;;;;;;;;;5050174;28;20739;-80
2022/10/10 09:00:47;;;;;;;9.97;6.80;;;;;;;;;;5050332;28;20198;-79
2022/10/10 09:03:21;;;;;;;7.23;6.53;;;;;;;;;;5050028;28;20212;-78
2022/10/10 09:05:56;;;;;;;6.60;6.00;;;;;;;;;;5050045;28;20232;-78
2022/10/10 09:08:33;;;;;;;8.53;7.47;;;;;;;;;;5050067;28;20205;-79
2022/10/10 09:11:04;;;;;;;8.00;7.20;;;;;;;;;;5050217;28;20205;-78
2022/10/10 09:13:34;;;;;;;15.30;7.73;;;;;;;;;;5052072;28;20202;-79
2022/10/10 09:16:02;;;;;;;9.73;7.07;;;;;;;;;;5053189;28;20226;-79
2022/10/10 09:18:44;;;;;;;8.47;6.10;;;;;;;;;;5053322;28;20206;-79
2022/10/10 09:21:15;;;;;;;8.33;6.60;;;;;;;;;;5053774;28;20646;-78
2022/10/10 09:23:47;;;;;;;10.30;7.17;;;;;;;;;;5053194;28;20264;-79
2022/10/10 09:26:16;;;;;;;14.37;7.20;;;;;;;;;;5053390;28;20209;-79
2022/10/10 09:28:48;;;;;;;8.50;7.47;;;;;;;;;;5053127;28;20284;-79
2022/10/10 09:31:18;;;;;;;14.43;7.30;;;;;;;;;;5053276;28;20193;-80
2022/10/10 09:33:51;;;;;;;9.53;8.00;;;;;;;;;;5053358;28;20263;-78
2022/10/10 09:36:20;;;;;;;9.47;6.70;;;;;;;;;;5040089;28;20222;-80
2022/10/10 09:38:49;;;;;;;7.27;6.67;;;;;;;;;;5053271;28;20204;-78
2022/10/10 09:41:20;;;;;;;8.77;6.53;;;;;;;;;;5052328;28;20263;-78
2022/10/10 09:43:47;;;;;;;12.87;7.20;;;;;;;;;;5053402;28;20293;-79
2022/10/10 09:46:15;;;;;;;8.10;6.77;;;;;;;;;;5052895;28;20703;-79
2022/10/10 09:48:42;;;;;;;9.63;7.10;;;;;;;;;;5053161;28;20213;-79
2022/10/10 09:51:13;;;;;;;13.10;6.90;;;;;;;;;;5053143;28;20198;-79
2022/10/10 09:53:40;;;;;;;6.67;5.70;;;;;;;;;;5052950;28;20642;-79
2022/10/10 09:56:08;;;;;;;6.97;6.27;;;;;;;;;;5052597;28;20202;-78
2022/10/10 09:58:39;;;;;;;6.73;6.10;;;;;;;;;;5052712;28;20198;-80
2022/10/10 10:01:18;;;;;;;7.50;5.93;;;;;;;;;;5052700;28;20202;-81
2022/10/10 10:03:46;;;;;;;7.50;6.10;;;;;;;;;;5052512;28;20220;-80
2022/10/10 10:06:15;;;;;;;6.37;5.73;;;;;;;;;;5052719;28;20661;-78
2022/10/10 10:08:42;;;;;;;7.63;6.93;;;;;;;;;;5052665;28;20201;-79
2022/10/10 10:11:26;;;;;;;5.83;5.33;;;;;;;;;;5052619;28;20296;-80
2022/10/10 10:13:55;;;;;;;7.27;5.47;;;;;;;;;;5052041;28;20256;-79
2022/10/10 10:16:30;;;;;;;5.77;5.37;;;;;;;;;;5052315;28;20783;-82
2022/10/10 10:18:57;;;;;;;6.40;5.80;;;;;;;;;;5052616;28;20674;-78
2022/10/10 10:21:25;;;;;;;7.87;5.53;;;;;;;;;;5052278;28;20202;-79
2022/10/10 10:23:58;;;;;;;6.00;5.40;;;;;;;;;;5051934;28;21108;-79
2022/10/10 10:26:27;;;;;;;7.67;5.73;;;;;;;;;;5052567;28;20234;-79
2022/10/10 10:28:56;;;;;;;5.50;5.00;;;;;;;;;;5051867;28;20206;-79
2022/10/10 10:31:39;;;;;;;8.50;5.87;;;;;;;;;;5052276;28;20691;-79
2022/10/10 10:34:17;;;;;;;6.63;5.97;;;;;;;;;;5052045;28;20210;-79
2022/10/10 10:36:51;;;;;;;8.77;5.47;;;;;;;;;;5052245;28;20224;-79
2022/10/10 10:39:28;;;;;;;5.23;4.73;;;;;;;;;;5051665;28;20267;-80
2022/10/10 10:42:01;;;;;;;6.83;5.57;;;;;;;;;;5052152;28;20215;-81
2022/10/10 10:44:34;;;;;;;6.07;5.53;;;;;;;;;;5052073;28;20198;-80
2022/10/10 10:47:09;;;;;;;7.20;6.03;;;;;;;;;;5051852;28;20206;-80
2022/10/10 10:49:37;;;;;;;6.37;5.17;;;;;;;;;;5051927;28;20209;-81
2022/10/10 10:52:20;;;;;;;5.33;4.83;;;;;;;;;;5051697;28;20228;-79
2022/10/10 10:55:01;;;;;;;5.20;4.80;;;;;;;;;;5051610;28;20213;-79
2022/10/10 10:57:38;;;;;;;5.97;5.03;;;;;;;;;;5051803;28;20616;-80
2022/10/10 11:00:09;;;;;;;5.33;4.77;;;;;;;;;;5051415;28;20201;-80
2022/10/10 11:02:39;;;;;;;9.93;4.90;;;;;;;;;;5050797;28;20680;-80
2022/10/10 11:05:33;;;;;;;5.07;4.67;;;;;;;;;;5051435;28;20673;-79
2022/10/10 11:08:12;;;;;;;13.43;5.97;;;;;;;;;;5051517;28;20688;-79
2022/10/10 11:10:44;;;;;;;6.37;5.37;;;;;;;;;;5051129;28;20202;-79
2022/10/10 11:13:17;;;;;;;7.90;5.03;;;;;;;;;;5051057;28;20197;-79
2022/10/10 11:15:47;;;;;;;7.30;5.43;;;;;;;;;;5051179;28;20202;-81
2022/10/10 11:18:17;;;;;;;8.50;5.17;;;;;;;;;;5051006;28;20229;-79
2022/10/10 11:20:46;;;;;;;6.20;5.20;;;;;;;;;;5051017;28;20201;-81
2022/10/10 11:23:17;;;;;;;10.07;5.97;;;;;;;;;;5051211;28;20213;-79
2022/10/10 11:25:47;;;;;;;5.90;5.30;;;;;;;;;;5050955;28;20221;-80
2022/10/10 11:28:18;;;;;;;5.47;5.07;;;;;;;;;;5051200;28;20202;-80
2022/10/10 11:30:49;;;;;;;5.60;4.30;;;;;;;;;;5051221;28;20283;-80
2022/10/10 11:33:18;;;;;;;5.70;5.13;;;;;;;;;;5051391;28;20654;-80
2022/10/10 11:35:47;;;;;;;9.17;4.87;;;;;;;;;;5050175;28;20206;-79
2022/10/10 11:38:20;;;;;;;6.47;4.93;;;;;;;;;;5050489;28;20229;-80
2022/10/10 11:40:53;;;;;;;5.97;4.70;;;;;;;;;;5050640;28;20255;-80
2022/10/10 11:43:28;;;;;;;5.90;5.40;;;;;;;;;;5051178;28;20202;-80
2022/10/10 11:45:59;;;;;;;7.17;5.30;;;;;;;;;;5050655;28;20588;-80
2022/10/10 11:48:32;;;;;;;7.20;5.90;;;;;;;;;;5050731;28;20200;-80
2022/10/10 11:51:04;;;;;;;6.10;4.70;;;;;;;;;;5050912;28;20251;-80
2022/10/10 11:53:36;;;;;;;7.63;4.97;;;;;;;;;;5051045;28;20225;-80
2022/10/10 11:56:13;;;;;;;6.27;5.20;;;;;;;;;;5050630;28;20201;-79
2022/10/10 11:58:42;;;;;;;5.07;4.47;;;;;;;;;;5050155;28;20316;-79
2022/10/10 12:01:14;;;;;;;6.33;4.93;;;;;;;;;;5050434;28;20209;-80
2022/10/10 12:03:41;;;;;;;4.97;4.57;;;;;;;;;;5050756;28;20220;-80
2022/10/10 12:06:14;;;;;;;7.43;5.17;;;;;;;;;;5050689;28;20684;-80
2022/10/10 12:08:47;;;;;;;9.20;5.57;;;;;;;;;;5050359;28;20672;-79
2022/10/10 12:11:19;;;;;;;8.87;4.63;;;;;;;;;;5050478;28;20640;-79
2022/10/10 12:13:48;;;;;;;6.07;5.20;;;;;;;;;;5050598;28;20676;-79
2022/10/10 12:16:18;;;;;;;4.73;4.33;;;;;;;;;;5050452;28;20206;-79
2022/10/10 12:18:47;;;;;;;6.57;4.53;;;;;;;;;;5050312;28;20222;-80
2022/10/10 12:21:15;;;;;;;5.40;4.63;;;;;;;;;;5050307;28;20197;-80
2022/10/10 12:23:46;;;;;;;5.03;4.63;;;;;;;;;;5050558;28;20198;-79
2022/10/10 12:26:17;;;;;;;6.00;4.97;;;;;;;;;;5050170;28;20202;-79
2022/10/10 12:29:04;;;;;;;6.03;5.07;;;;;;;;;;5050590;28;20225;-80
2022/10/10 12:31:33;;;;;;;6.33;5.07;;;;;;;;;;5050531;28;20201;-80
2022/10/10 12:34:03;;;;;;;5.27;4.77;;;;;;;;;;5050273;28;20636;-79
2022/10/10 12:37:04;;;;;;;7.47;5.27;;;;;;;;;;5050154;28;20251;-79
2022/10/10 12:39:37;;;;;;;6.00;5.40;;;;;;;;;;5050025;28;20209;-81
2022/10/10 12:42:28;;;;;;;5.53;5.03;;;;;;;;;;5050430;28;20205;-81
2022/10/10 12:44:55;;;;;;;5.23;4.43;;;;;;;;;;5050016;28;20202;-79
2022/10/10 12:47:41;;;;;;;5.83;4.73;;;;;;;;;;5051584;28;20695;-81
2022/10/10 12:50:20;;;;;;;7.60;5.27;;;;;;;;;;5053863;28;20646;-80
2022/10/10 12:52:49;;;;;;;6.10;4.93;;;;;;;;;;5054242;28;20233;-80
2022/10/10 12:55:21;;;;;;;7.77;5.20;;;;;;;;;;5053440;28;20220;-80
2022/10/10 12:57:49;;;;;;;5.53;5.03;;;;;;;;;;5053691;28;20778;-82
2022/10/10 13:00:17;;;;;;;5.90;5.40;;;;;;;;;;5054100;28;20201;-80
2022/10/10 13:02:46;;;;;;;5.67;5.10;;;;;;;;;;5053787;28;20202;-79
2022/10/10 13:05:17;;;;;;;7.00;5.47;;;;;;;;;;5053719;28;20256;-79
2022/10/10 13:07:45;;;;;;;6.03;5.47;;;;;;;;;;5053271;28;20676;-79
2022/10/10 13:10:23;;;;;;;6.60;5.20;;;;;;;;;;5053857;28;20198;-80
2022/10/10 13:13:01;;;;;;;8.30;5.43;;;;;;;;;;5053547;28;20201;-81
2022/10/10 13:15:28;;;;;;;5.40;4.90;;;;;;;;;;5053601;28;20244;-80
2022/10/10 13:17:55;;;;;;;6.27;5.67;;;;;;;;;;5053300;28;20225;-80
2022/10/10 13:20:31;;;;;;;10.10;5.53;;;;;;;;;;5053166;28;20209;-80
2022/10/10 13:22:58;;;;;;;5.50;5.03;;;;;;;;;;5053925;28;20255;-80
2022/10/10 13:25:27;;;;;;;9.67;6.00;;;;;;;;;;5052829;28;20587;-80
2022/10/10 13:27:54;;;;;;;7.47;5.37;;;;;;;;;;5053522;28;20582;-81
2022/10/10 13:30:22;;;;;;;12.87;6.03;;;;;;;;;;5053312;28;20206;-80
2022/10/10 13:32:49;;;;;;;7.47;5.50;;;;;;;;;;5039531;28;20684;-81
2022/10/10 13:35:17;;;;;;;5.60;5.10;;;;;;;;;;5053407;28;20639;-81
2022/10/10 13:37:45;;;;;;;6.07;5.47;;;;;;;;;;5052982;28;20229;-80
2022/10/10 13:40:14;;;;;;;9.30;5.53;;;;;;;;;;5053078;28;20210;-80
2022/10/10 13:42:42;;;;;;;13.20;6.73;;;;;;;;;;5053119;28;20206;-80
2022/10/10 13:45:37;;;;;;;8.00;5.37;;;;;;;;;;5053082;28;20206;-80
2022/10/10 13:48:18;;;;;;;5.77;5.17;;;;;;;;;;5028681;28;20755;-80
2022/10/10 13:51:01;;;;;;;7.53;5.23;;;;;;;;;;5052781;28;20659;-80
2022/10/10 13:53:43;;;;;;;6.00;5.50;;;;;;;;;;5053059;28;20233;-80
2022/10/10 13:56:13;;;;;;;7.07;5.33;;;;;;;;;;5052456;28;20214;-79
2022/10/10 13:58:43;;;;;;;6.63;5.40;;;;;;;;;;5051999;28;20226;-80
2022/10/10 14:01:30;;;;;;;10.57;6.40;;;;;;;;;;5052896;28;20205;-81
2022/10/10 14:04:00;;;;;;;6.83;5.33;;;;;;;;;;5052308;28;20280;-80
2022/10/10 14:06:27;;;;;;;7.07;5.20;;;;;;;;;;5052356;28;20746;-82
2022/10/10 14:08:56;;;;;;;5.77;5.27;;;;;;;;;;5051294;28;20211;-81
2022/10/10 14:11:26;;;;;;;7.93;5.70;;;;;;;;;;5052409;28;20671;-81
2022/10/10 14:14:01;;;;;;;5.47;4.70;;;;;;;;;;5050243;28;20197;-80
2022/10/10 14:16:27;;;;;;;5.93;5.33;;;;;;;;;;5052036;28;20213;-80
2022/10/10 14:18:54;;;;;;;10.30;8.03;;;;;;;;;;5051757;28;20224;-82
2022/10/10 14:21:21;;;;;;;9.60;7.13;;;;;;;;;;5052359;28;20281;-80
2022/10/10 14:23:48;;;;;;;7.87;6.77;;;;;;;;;;5051711;28;20209;-80
2022/10/10 14:26:17;;;;;;;6.87;6.17;;;;;;;;;;5044735;28;20194;-80
2022/10/10 14:28:46;;;;;;;8.30;6.70;;;;;;;;;;5051094;28;20198;-79
2022/10/10 14:31:14;;;;;;;7.10;6.40;;;;;;;;;;5051647;28;20209;-80
2022/10/10 14:33:41;;;;;;;9.17;6.20;;;;;;;;;;5051826;28;20642;-81
2022/10/10 14:36:08;;;;;;;6.53;5.93;;;;;;;;;;5051877;28;20259;-81
2022/10/10 14:38:35;;;;;;;9.20;5.60;;;;;;;;;;5051071;28;20670;-80
2022/10/10 14:41:01;;;;;;;5.27;4.77;;;;;;;;;;5050480;28;20213;-80
2022/10/10 14:43:28;;;;;;;6.57;6.03;;;;;;;;;;5051577;28;20202;-80
2022/10/10 14:45:55;;;;;;;6.63;6.03;;;;;;;;;;5051574;28;20202;-81
2022/10/10 14:48:23;;;;;;;9.97;6.47;;;;;;;;;;5051877;28;20201;-80
2022/10/10 14:50:51;;;;;;;7.17;6.47;;;;;;;;;;5051502;28;20603;-81
2022/10/10 14:53:17;;;;;;;12.67;11.47;;;;;;;;;;5050785;28;20795;-81
2022/10/10 14:55:44;;;;;;;15.67;14.30;;;;;;;;;;5051193;28;20213;-81